createdAt,value
2022-10-06T00:01:04.465Z,9.52
2022-10-06T00:03:32.758Z,9.48
2022-10-06T00:06:03.480Z,9.38
2022-10-06T00:08:32.293Z,9.23
2022-10-06T00:11:00.463Z,9.26
2022-10-06T00:13:29.503Z,9.32
2022-10-06T00:15:58.009Z,9.51
2022-10-06T00:18:26.289Z,9.17
2022-10-06T00:20:56.229Z,9.14
2022-10-06T00:23:26.228Z,9.16
2022-10-06T00:25:54.242Z,9.27
2022-10-06T00:28:22.586Z,9.27
2022-10-06T00:30:53.591Z,9.20
2022-10-06T00:33:21.942Z,9.08
2022-10-06T00:35:56.902Z,9.32
2022-10-06T00:38:27.085Z,9.41
2022-10-06T00:40:55.573Z,9.21
2022-10-06T00:43:57.907Z,9.07
2022-10-06T00:46:35.954Z,8.76
2022-10-06T00:49:17.942Z,8.69
2022-10-06T00:51:49.065Z,8.69
2022-10-06T00:54:20.676Z,8.73
2022-10-06T00:56:49.038Z,8.86
2022-10-06T00:59:19.694Z,8.79
2022-10-06T01:01:54.238Z,8.62
2022-10-06T01:04:23.626Z,8.10
2022-10-06T01:06:55.433Z,8.01
2022-10-06T01:09:25.367Z,8.27
2022-10-06T01:11:57.401Z,8.31
2022-10-06T01:14:26.267Z,8.28
2022-10-06T01:16:57.221Z,8.56
2022-10-06T01:19:35.939Z,8.76
2022-10-06T01:22:08.527Z,8.82
2022-10-06T01:24:38.433Z,8.86
2022-10-06T01:27:09.437Z,8.87
2022-10-06T01:29:38.175Z,8.73
2022-10-06T01:32:06.828Z,8.83
2022-10-06T01:34:35.249Z,8.32
2022-10-06T01:37:03.584Z,8.55
2022-10-06T01:39:31.934Z,8.49
2022-10-06T01:42:01.663Z,8.56
2022-10-06T01:44:33.870Z,8.62
2022-10-06T01:47:01.987Z,8.56
2022-10-06T01:49:30.060Z,8.61
2022-10-06T01:51:59.309Z,8.61
2022-10-06T01:54:27.315Z,8.55
2022-10-06T01:56:56.466Z,8.58
2022-10-06T01:59:26.370Z,8.61
2022-10-06T02:01:54.461Z,8.59
2022-10-06T02:04:22.599Z,8.56
2022-10-06T02:06:51.694Z,8.58
2022-10-06T02:09:20.058Z,8.49
2022-10-06T02:11:48.028Z,8.45
2022-10-06T02:14:16.106Z,8.44
2022-10-06T02:16:46.194Z,8.52
2022-10-06T02:19:14.272Z,8.42
2022-10-06T02:21:42.263Z,8.35
2022-10-06T02:24:11.010Z,8.38
2022-10-06T02:26:39.318Z,8.31
2022-10-06T02:29:07.719Z,8.32
2022-10-06T02:31:35.737Z,8.42
2022-10-06T02:34:05.428Z,8.37
2022-10-06T02:36:33.880Z,8.30
2022-10-06T02:39:02.111Z,8.23
2022-10-06T02:41:31.041Z,7.82
2022-10-06T02:43:59.060Z,7.79
2022-10-06T02:46:27.541Z,7.87
2022-10-06T02:48:57.169Z,7.98
2022-10-06T02:51:26.810Z,7.94
2022-10-06T02:53:55.737Z,7.98
2022-10-06T02:56:25.306Z,7.97
2022-10-06T02:58:54.791Z,7.94
2022-10-06T03:01:35.216Z,7.84
2022-10-06T03:04:11.728Z,7.77
2022-10-06T03:06:43.685Z,7.72
2022-10-06T03:09:20.366Z,7.82
2022-10-06T03:11:48.462Z,7.82
2022-10-06T03:14:29.711Z,7.65
2022-10-06T03:16:58.127Z,7.77
2022-10-06T03:19:29.688Z,7.67
2022-10-06T03:21:59.047Z,7.59
2022-10-06T03:24:35.970Z,7.48
2022-10-06T03:27:04.071Z,7.48
2022-10-06T03:29:32.211Z,7.55
2022-10-06T03:32:00.290Z,7.51
2022-10-06T03:34:29.691Z,7.48
2022-10-06T03:37:00.856Z,7.39
2022-10-06T03:39:30.088Z,6.91
2022-10-06T03:41:58.089Z,6.96
2022-10-06T03:44:27.055Z,7.12
2022-10-06T03:46:55.422Z,7.17
2022-10-06T03:49:23.637Z,7.32
2022-10-06T03:51:51.764Z,7.21
2022-10-06T03:54:25.869Z,7.19
2022-10-06T03:56:54.919Z,7.27
2022-10-06T03:59:23.099Z,7.00
2022-10-06T04:01:53.052Z,7.00
2022-10-06T04:04:28.968Z,7.08
2022-10-06T04:07:02.789Z,7.05
2022-10-06T04:09:32.269Z,7.12
2022-10-06T04:12:01.192Z,7.22
2022-10-06T04:14:29.573Z,7.29
2022-10-06T04:16:58.221Z,7.31
2022-10-06T04:19:31.597Z,7.32
2022-10-06T04:22:00.238Z,7.42
2022-10-06T04:24:28.222Z,7.45
2022-10-06T04:27:20.106Z,7.48
2022-10-06T04:29:54.501Z,7.44
2022-10-06T04:32:22.666Z,7.38
2022-10-06T04:34:51.091Z,7.29
2022-10-06T04:37:19.792Z,7.27
2022-10-06T04:39:47.786Z,7.18
2022-10-06T04:42:20.786Z,7.05
2022-10-06T04:44:49.265Z,6.87
2022-10-06T04:47:17.425Z,6.90
2022-10-06T04:49:45.700Z,6.90
2022-10-06T04:52:14.756Z,6.89
2022-10-06T04:54:46.917Z,7.00
2022-10-06T04:57:14.861Z,7.08
2022-10-06T05:00:07.844Z,6.90
2022-10-06T05:02:38.982Z,6.94
2022-10-06T05:05:08.438Z,7.08
2022-10-06T05:07:36.538Z,7.04
2022-10-06T05:10:04.936Z,6.90
2022-10-06T05:12:33.393Z,7.05
2022-10-06T05:15:03.525Z,7.07
2022-10-06T05:17:31.819Z,7.05
2022-10-06T05:20:00.456Z,7.17
2022-10-06T05:22:28.611Z,7.12
2022-10-06T05:24:56.560Z,7.14
2022-10-06T05:27:29.188Z,6.97
2022-10-06T05:29:57.331Z,6.83
2022-10-06T05:32:29.709Z,6.87
2022-10-06T05:35:00.654Z,6.89
2022-10-06T05:37:28.661Z,6.73
2022-10-06T05:39:56.793Z,6.63
2022-10-06T05:42:29.497Z,6.73
2022-10-06T05:44:58.673Z,6.65
2022-10-06T05:47:28.806Z,6.69
2022-10-06T05:49:57.109Z,6.83
2022-10-06T05:52:25.343Z,6.97
2022-10-06T05:54:54.613Z,7.03
2022-10-06T05:57:22.872Z,7.08
2022-10-06T05:59:50.981Z,7.29
2022-10-06T06:02:19.141Z,7.42
2022-10-06T06:04:49.486Z,7.46
2022-10-06T06:07:17.759Z,7.61
2022-10-06T06:09:47.572Z,7.70
2022-10-06T06:12:16.555Z,7.83
2022-10-06T06:15:08.447Z,7.83
2022-10-06T06:17:56.766Z,7.93
2022-10-06T06:20:26.224Z,7.98
2022-10-06T06:22:54.481Z,8.03
2022-10-06T06:25:26.274Z,8.03
2022-10-06T06:27:56.466Z,8.20
2022-10-06T06:30:25.496Z,8.15
2022-10-06T06:33:00.266Z,8.25
2022-10-06T06:35:30.610Z,8.30
2022-10-06T06:37:59.818Z,8.41
2022-10-06T06:40:29.106Z,8.59
2022-10-06T06:42:57.401Z,8.84
2022-10-06T06:45:37.993Z,8.94
2022-10-06T06:48:20.071Z,9.17
2022-10-06T06:50:59.304Z,9.47
2022-10-06T06:53:30.407Z,9.81
2022-10-06T06:56:00.788Z,9.92
2022-10-06T06:58:29.306Z,9.97
2022-10-06T07:01:06.194Z,10.24
2022-10-06T07:03:56.066Z,10.42
2022-10-06T07:06:28.087Z,10.71
2022-10-06T07:08:58.860Z,10.72
2022-10-06T07:11:29.838Z,10.88
2022-10-06T07:14:01.353Z,10.95
2022-10-06T07:16:48.548Z,11.15
2022-10-06T07:19:35.699Z,11.26
2022-10-06T07:22:32.499Z,11.24
2022-10-06T07:25:11.854Z,11.36
2022-10-06T07:27:45.690Z,11.38
2022-10-06T07:30:19.531Z,11.79
2022-10-06T07:32:52.348Z,11.99
2022-10-06T07:35:23.480Z,12.22
2022-10-06T07:37:54.267Z,12.28
2022-10-06T07:40:50.537Z,12.36
2022-10-06T07:43:31.286Z,12.28
2022-10-06T07:46:00.667Z,12.46
2022-10-06T07:48:37.127Z,12.75
2022-10-06T07:51:13.134Z,12.81
2022-10-06T07:53:44.861Z,12.88
2022-10-06T07:56:21.888Z,12.98
2022-10-06T07:58:53.005Z,13.05
2022-10-06T08:01:21.799Z,13.12
2022-10-06T08:03:50.737Z,13.20
2022-10-06T08:06:19.941Z,13.39
2022-10-06T08:08:52.777Z,13.36
2022-10-06T08:11:22.866Z,13.47
2022-10-06T08:13:52.052Z,13.43
2022-10-06T08:16:22.678Z,13.59
2022-10-06T08:18:53.428Z,13.67
2022-10-06T08:21:23.908Z,13.74
2022-10-06T08:23:54.718Z,13.74
2022-10-06T08:26:25.080Z,13.80
2022-10-06T08:28:55.317Z,13.92
2022-10-06T08:31:24.425Z,14.02
2022-10-06T08:33:56.163Z,14.11
2022-10-06T08:36:30.913Z,14.24
2022-10-06T08:39:02.151Z,14.24
2022-10-06T08:41:40.574Z,14.29
2022-10-06T08:44:20.872Z,14.59
2022-10-06T08:46:55.075Z,14.87
2022-10-06T08:49:26.984Z,14.81
2022-10-06T08:52:02.230Z,15.11
2022-10-06T08:54:38.530Z,15.27
2022-10-06T08:57:15.715Z,15.31
2022-10-06T08:59:48.038Z,15.42
2022-10-06T09:02:28.813Z,15.42
2022-10-06T09:04:59.483Z,15.63
2022-10-06T09:07:39.858Z,15.85
2022-10-06T09:10:26.805Z,15.76
2022-10-06T09:12:57.665Z,15.98
2022-10-06T09:15:34.108Z,16.01
2022-10-06T09:18:10.798Z,16.31
2022-10-06T09:20:44.589Z,16.45
2022-10-06T09:23:17.420Z,16.48
2022-10-06T09:25:47.219Z,16.56
2022-10-06T09:28:16.446Z,16.49
2022-10-06T09:30:44.661Z,16.77
2022-10-06T09:33:20.214Z,17.10
2022-10-06T09:36:09.371Z,17.30
2022-10-06T09:38:49.600Z,17.34
2022-10-06T09:41:19.475Z,17.31
2022-10-06T09:43:59.645Z,17.66
2022-10-06T09:46:34.169Z,18.03
2022-10-06T09:49:20.346Z,18.22
2022-10-06T09:52:02.285Z,18.57
2022-10-06T09:54:31.394Z,18.54
2022-10-06T09:57:09.786Z,18.71
2022-10-06T09:59:42.604Z,18.92
2022-10-06T10:02:33.751Z,19.00
2022-10-06T10:05:02.477Z,19.26
2022-10-06T10:07:31.610Z,19.31
2022-10-06T10:10:20.197Z,19.49
2022-10-06T10:12:55.612Z,19.54
2022-10-06T10:15:31.138Z,19.57
2022-10-06T10:18:04.775Z,19.77
2022-10-06T10:20:36.778Z,19.72
2022-10-06T10:23:18.599Z,19.72
2022-10-06T10:25:56.271Z,19.70
2022-10-06T10:28:35.237Z,19.60
2022-10-06T10:31:12.879Z,19.79
2022-10-06T10:33:59.168Z,20.02
2022-10-06T10:36:41.846Z,20.05
2022-10-06T10:39:16.268Z,20.13
2022-10-06T10:41:48.877Z,20.29
2022-10-06T10:44:28.256Z,20.29
2022-10-06T10:47:05.006Z,20.32
2022-10-06T10:49:35.086Z,20.33
2022-10-06T10:52:12.158Z,20.23
2022-10-06T10:54:45.984Z,20.56
2022-10-06T10:57:18.145Z,20.91
2022-10-06T10:59:59.075Z,20.98
2022-10-06T11:02:28.453Z,20.94
2022-10-06T11:05:02.102Z,21.04
2022-10-06T11:07:35.313Z,21.02
2022-10-06T11:10:11.197Z,21.09
2022-10-06T11:12:58.437Z,21.04
2022-10-06T11:15:52.036Z,21.25
2022-10-06T11:18:32.503Z,21.16
2022-10-06T11:21:06.138Z,21.19
2022-10-06T11:23:53.321Z,21.39
2022-10-06T11:26:49.688Z,21.60
2022-10-06T11:29:27.003Z,21.69
2022-10-06T11:32:06.043Z,21.77
2022-10-06T11:34:34.104Z,21.94
2022-10-06T11:37:09.552Z,21.91
2022-10-06T11:39:53.439Z,22.01
2022-10-06T11:45:03.968Z,22.12
2022-10-06T11:47:42.264Z,22.02
2022-10-06T11:50:41.891Z,22.08
2022-10-06T11:53:27.355Z,22.14
2022-10-06T11:56:34.798Z,22.38
2022-10-06T11:59:14.081Z,22.45
2022-10-06T12:01:53.601Z,22.53
2022-10-06T12:04:24.639Z,22.93
2022-10-06T12:07:06.531Z,22.94
2022-10-06T12:09:52.785Z,22.82
2022-10-06T12:13:07.035Z,22.38
2022-10-06T12:19:00.951Z,23.00
2022-10-06T12:21:49.265Z,22.96
2022-10-06T12:24:29.548Z,22.36
2022-10-06T12:27:26.339Z,23.08
2022-10-06T12:30:01.647Z,23.44
2022-10-06T12:32:47.898Z,23.61
2022-10-06T12:35:28.532Z,23.66
2022-10-06T12:38:02.588Z,23.59
2022-10-06T12:40:51.554Z,23.44
2022-10-06T12:43:57.168Z,23.31
2022-10-06T12:46:46.494Z,23.24
2022-10-06T12:49:37.083Z,22.97
2022-10-06T12:52:17.257Z,22.82
2022-10-06T12:55:00.560Z,22.86
2022-10-06T12:57:30.844Z,22.99
2022-10-06T12:59:59.113Z,23.15
2022-10-06T13:02:28.903Z,22.44
2022-10-06T13:05:00.892Z,22.38
2022-10-06T13:07:30.604Z,22.62
2022-10-06T13:10:20.336Z,22.53
2022-10-06T13:12:52.059Z,22.76
2022-10-06T13:15:23.885Z,22.87
2022-10-06T13:17:55.125Z,22.56
2022-10-06T13:20:35.650Z,22.36
2022-10-06T13:23:10.288Z,22.59
2022-10-06T13:25:49.071Z,22.57
2022-10-06T13:28:30.436Z,22.28
2022-10-06T13:33:32.432Z,21.90
2022-10-06T13:36:00.957Z,21.88
2022-10-06T13:38:31.883Z,21.80
2022-10-06T13:41:18.916Z,22.24
2022-10-06T13:43:52.563Z,22.08
2022-10-06T13:46:29.486Z,22.18
2022-10-06T13:49:03.543Z,21.47
2022-10-06T13:51:34.052Z,21.42
2022-10-06T13:54:07.901Z,21.36
2022-10-06T13:56:39.849Z,21.31
2022-10-06T13:59:30.292Z,21.14
2022-10-06T14:01:59.533Z,20.95
2022-10-06T14:04:27.815Z,20.63
2022-10-06T14:07:00.755Z,20.70
2022-10-06T14:09:33.205Z,20.64
2022-10-06T14:12:12.920Z,20.66
2022-10-06T14:14:46.052Z,20.60
2022-10-06T14:17:22.987Z,20.51
2022-10-06T14:19:51.587Z,20.61
2022-10-06T14:22:31.383Z,20.77
2022-10-06T14:24:59.525Z,20.26
2022-10-06T14:27:29.073Z,20.09
2022-10-06T14:30:01.533Z,20.22
2022-10-06T14:32:30.020Z,20.20
2022-10-06T14:34:58.121Z,19.89
2022-10-06T14:37:26.292Z,19.79
2022-10-06T14:39:56.021Z,19.71
2022-10-06T14:42:24.824Z,19.60
2022-10-06T14:44:54.294Z,19.64
2022-10-06T14:47:22.405Z,19.71
2022-10-06T14:49:50.749Z,19.50
2022-10-06T14:52:19.473Z,19.34
2022-10-06T14:54:47.835Z,19.24
2022-10-06T14:57:15.876Z,19.43
2022-10-06T14:59:43.934Z,19.28
2022-10-06T15:02:14.382Z,19.19
2022-10-06T15:04:42.595Z,19.10
2022-10-06T15:07:27.889Z,19.06
2022-10-06T15:09:57.262Z,18.98
2022-10-06T15:12:25.391Z,18.96
2022-10-06T15:14:53.979Z,18.95
2022-10-06T15:17:24.510Z,18.89
2022-10-06T15:19:52.668Z,18.81
2022-10-06T15:22:21.053Z,18.75
2022-10-06T15:24:51.399Z,18.78
2022-10-06T15:27:36.918Z,18.84
2022-10-06T15:30:15.937Z,18.91
2022-10-06T15:32:45.628Z,18.69
2022-10-06T15:35:13.636Z,18.57
2022-10-06T15:37:42.320Z,18.44
2022-10-06T15:40:11.133Z,18.58
2022-10-06T15:42:39.491Z,18.30
2022-10-06T15:45:08.598Z,18.23
2022-10-06T15:47:36.922Z,18.30
2022-10-06T15:50:07.810Z,18.12
2022-10-06T15:52:35.944Z,18.07
2022-10-06T15:55:04.135Z,17.97
2022-10-06T15:57:32.200Z,17.95
2022-10-06T16:00:02.516Z,17.92
2022-10-06T16:02:40.492Z,17.97
2022-10-06T16:05:35.472Z,18.00
2022-10-06T16:08:03.634Z,18.12
2022-10-06T16:10:32.014Z,18.29
2022-10-06T16:13:00.356Z,18.31
2022-10-06T16:15:28.545Z,18.36
2022-10-06T16:17:56.924Z,18.36
2022-10-06T16:20:26.591Z,18.38
2022-10-06T16:22:55.036Z,18.45
2022-10-06T16:25:25.063Z,18.44
2022-10-06T16:27:53.151Z,18.31
2022-10-06T16:30:21.456Z,18.29
2022-10-06T16:32:49.485Z,18.22
2022-10-06T16:35:18.580Z,18.07
2022-10-06T16:37:49.979Z,17.85
2022-10-06T16:40:18.848Z,17.75
2022-10-06T16:42:47.144Z,17.86
2022-10-06T16:45:15.809Z,17.89
2022-10-06T16:47:44.016Z,17.86
2022-10-06T16:50:12.229Z,17.82
2022-10-06T16:52:40.928Z,17.72
2022-10-06T16:55:14.647Z,17.69
2022-10-06T16:57:42.690Z,17.57
2022-10-06T17:00:12.479Z,17.52
2022-10-06T17:02:41.360Z,17.38
2022-10-06T17:05:10.055Z,17.07
2022-10-06T17:07:38.135Z,17.26
2022-10-06T17:10:21.369Z,17.14
2022-10-06T17:12:51.038Z,17.13
2022-10-06T17:15:19.204Z,17.07
2022-10-06T17:17:47.930Z,17.07
2022-10-06T17:20:17.000Z,17.10
2022-10-06T17:22:45.059Z,16.53
2022-10-06T17:25:14.248Z,16.47
2022-10-06T17:27:42.371Z,16.66
2022-10-06T17:30:16.880Z,16.77
2022-10-06T17:32:47.108Z,16.83
2022-10-06T17:35:15.387Z,16.41
2022-10-06T17:37:43.838Z,16.03
2022-10-06T17:40:14.369Z,16.13
2022-10-06T17:42:43.065Z,15.38
2022-10-06T17:45:11.857Z,15.69
2022-10-06T17:47:41.690Z,15.79
2022-10-06T17:50:11.281Z,15.63
2022-10-06T17:52:39.868Z,15.59
2022-10-06T17:55:09.015Z,15.73
2022-10-06T17:57:37.690Z,15.62
2022-10-06T18:00:07.657Z,15.48
2022-10-06T18:02:42.441Z,15.15
2022-10-06T18:05:11.261Z,14.91
2022-10-06T18:07:42.903Z,14.87
2022-10-06T18:10:27.657Z,14.90
2022-10-06T18:12:56.240Z,14.91
2022-10-06T18:15:24.945Z,14.73
2022-10-06T18:17:54.666Z,14.59
2022-10-06T18:20:24.906Z,14.63
2022-10-06T18:22:53.769Z,14.64
2022-10-06T18:25:26.851Z,14.77
2022-10-06T18:27:55.467Z,14.67
2022-10-06T18:30:29.227Z,14.84
2022-10-06T18:36:06.715Z,14.67
2022-10-06T18:36:14.338Z,14.66
2022-10-06T18:38:45.007Z,14.97
2022-10-06T18:41:15.865Z,14.91
2022-10-06T18:43:44.721Z,14.81
2022-10-06T18:46:32.397Z,14.73
2022-10-06T18:49:05.974Z,14.60
2022-10-06T18:51:38.826Z,14.66
2022-10-06T18:54:09.382Z,14.55
2022-10-06T18:56:39.364Z,14.69
2022-10-06T18:59:11.404Z,14.74
2022-10-06T19:01:42.483Z,14.49
2022-10-06T19:04:14.857Z,14.40
2022-10-06T19:06:45.422Z,14.04
2022-10-06T19:09:17.611Z,13.70
2022-10-06T19:11:50.154Z,13.71
2022-10-06T19:14:20.006Z,13.73
2022-10-06T19:16:50.320Z,14.07
2022-10-06T19:19:22.088Z,14.25
2022-10-06T19:21:52.267Z,14.36
2022-10-06T19:24:22.482Z,14.36
2022-10-06T19:26:52.657Z,14.36
2022-10-06T19:29:23.906Z,14.37
2022-10-06T19:31:53.986Z,14.39
2022-10-06T19:34:24.649Z,14.49
2022-10-06T19:36:54.180Z,14.49
2022-10-06T19:39:24.294Z,14.45
2022-10-06T19:42:10.136Z,14.33
2022-10-06T19:44:43.288Z,13.32
2022-10-06T19:47:16.310Z,13.27
2022-10-06T19:49:46.483Z,13.32
2022-10-06T19:52:15.242Z,13.38
2022-10-06T19:54:43.558Z,13.38
2022-10-06T19:57:12.589Z,13.32
2022-10-06T19:59:40.897Z,13.46
2022-10-06T20:02:10.316Z,13.50
2022-10-06T20:04:39.743Z,13.35
2022-10-06T20:07:09.678Z,13.33
2022-10-06T20:09:37.884Z,13.42
2022-10-06T20:12:06.443Z,13.46
2022-10-06T20:14:34.440Z,13.50
2022-10-06T20:17:02.708Z,13.52
2022-10-06T20:19:31.094Z,13.56
2022-10-06T20:21:59.292Z,13.42
2022-10-06T20:24:28.721Z,13.43
2022-10-06T20:26:56.819Z,13.46
2022-10-06T20:29:28.350Z,13.40
2022-10-06T20:31:58.972Z,13.30
2022-10-06T20:34:32.254Z,13.40
2022-10-06T20:37:02.371Z,13.23
2022-10-06T20:39:50.865Z,12.71
2022-10-06T20:42:21.178Z,12.83
2022-10-06T20:44:49.575Z,12.81
2022-10-06T20:47:18.664Z,12.53
2022-10-06T20:49:47.372Z,12.23
2022-10-06T20:52:15.480Z,12.10
2022-10-06T20:54:45.293Z,12.09
2022-10-06T20:57:13.429Z,12.23
2022-10-06T20:59:41.947Z,12.60
2022-10-06T21:02:11.130Z,12.73
2022-10-06T21:04:39.455Z,12.65
2022-10-06T21:07:10.363Z,12.47
2022-10-06T21:09:40.442Z,12.40
2022-10-06T21:12:10.365Z,11.99
2022-10-06T21:14:42.355Z,11.60
2022-10-06T21:17:10.489Z,11.51
2022-10-06T21:19:38.615Z,11.43
2022-10-06T21:22:07.086Z,11.58
2022-10-06T21:24:35.654Z,11.60
2022-10-06T21:27:03.812Z,12.03
2022-10-06T21:29:33.293Z,11.65
2022-10-06T21:32:01.513Z,11.60
2022-10-06T21:34:29.654Z,11.74
2022-10-06T21:36:58.171Z,11.95
2022-10-06T21:39:26.339Z,11.86
2022-10-06T21:41:56.692Z,11.96
2022-10-06T21:44:25.140Z,12.01
2022-10-06T21:46:56.020Z,11.99
2022-10-06T21:49:25.397Z,11.51
2022-10-06T21:51:55.377Z,11.71
2022-10-06T21:54:24.742Z,11.63
2022-10-06T21:56:53.088Z,11.83
2022-10-06T21:59:21.283Z,11.81
2022-10-06T22:01:50.751Z,11.81
2022-10-06T22:04:20.786Z,11.81
2022-10-06T22:06:50.301Z,11.86
2022-10-06T22:09:20.367Z,11.85
2022-10-06T22:11:48.733Z,11.71
2022-10-06T22:14:18.763Z,11.24
2022-10-06T22:16:47.061Z,11.44
2022-10-06T22:19:16.438Z,11.38
2022-10-06T22:21:48.133Z,11.30
2022-10-06T22:24:19.035Z,11.47
2022-10-06T22:26:47.569Z,11.33
2022-10-06T22:29:18.456Z,11.09
2022-10-06T22:31:48.500Z,10.88
2022-10-06T22:34:18.871Z,10.72
2022-10-06T22:36:50.506Z,10.67
2022-10-06T22:39:19.113Z,10.75
2022-10-06T22:41:47.212Z,10.91
2022-10-06T22:44:15.493Z,10.92
2022-10-06T22:46:43.875Z,11.12
2022-10-06T22:49:12.147Z,11.03
2022-10-06T22:51:40.411Z,10.85
2022-10-06T22:54:17.301Z,10.89
2022-10-06T22:56:47.578Z,10.89
2022-10-06T22:59:15.661Z,11.10
2022-10-06T23:01:43.782Z,11.22
2022-10-06T23:04:11.830Z,11.31
2022-10-06T23:06:39.853Z,11.28
2022-10-06T23:09:09.688Z,11.31
2022-10-06T23:11:38.156Z,11.06
2022-10-06T23:14:06.236Z,11.17
2022-10-06T23:16:34.536Z,11.07
2022-10-06T23:19:02.698Z,10.79
2022-10-06T23:21:31.109Z,10.68
2022-10-06T23:24:01.171Z,10.61
2022-10-06T23:26:33.106Z,10.45
2022-10-06T23:29:02.392Z,10.51
2022-10-06T23:31:31.115Z,10.50
2022-10-06T23:34:00.084Z,10.59
2022-10-06T23:36:28.286Z,10.64
2022-10-06T23:38:56.602Z,10.79
2022-10-06T23:41:26.946Z,10.79
2022-10-06T23:43:56.652Z,10.69
2022-10-06T23:46:24.701Z,10.68
2022-10-06T23:48:52.828Z,10.61
2022-10-06T23:51:21.211Z,10.37
2022-10-06T23:53:49.335Z,10.07
2022-10-06T23:56:19.148Z,10.10
2022-10-06T23:58:47.438Z,10.25
